Terminal Aerodrome Forecast
Issued by NWS

Home | Current Version | Previous Version | Text Only | Print | Product List | Glossary On
Versions: 1 2 3 4 5 6 7 8 9 10 11 12 13 14 15 16 17 18 19 20 21 22 23 24 25 26 27
000
FTUS44 KEWX 200253 AAC
TAFSSF
TAF AMD
KSSF 200253Z 2003/2024 13012KT P6SM VCSH BKN015 BKN050
     FM200400 14007KT 5SM TSRA BR BKN015CB
      TEMPO 2004/2008 VRB15G25KT 1SM TSRA OVC010CB
     FM200900 11005KT P6SM -SHRA OVC025
     FM201200 32008KT P6SM VCSH SCT025 OVC040
     FM201400 36006KT P6SM BKN050 OVC100=

USA.gov is the U.S. government's official web portal to all federal, state and local government web resources and services.